Time;durP1;ratioP1;P1;durP2;ratioP2;P2;SDS_P1;SDS_P2;PMS_P1;PMS_P2;Temp;Humidity;BMP_temperature;BMP_pressure;BME280_temperature;BME280_humidity;BME280_pressure;Samples;Min_cycle;Max_cycle;Signal;HPM_P1;HPM_P2
2021/04/06 00:01:41;;;;;;;1.73;0.60;;;15.10;99.90;;;;;;5117318;28;20205;-91
2021/04/06 00:04:17;;;;;;;1.90;0.80;;;15.10;99.90;;;;;;5117295;28;20650;-92
2021/04/06 00:06:51;;;;;;;5.10;0.93;;;15.10;99.90;;;;;;5117820;28;20205;-91
2021/04/06 00:09:25;;;;;;;4.10;0.83;;;15.00;99.90;;;;;;5115824;28;20205;-91
2021/04/06 00:11:58;;;;;;;2.00;0.87;;;14.30;99.90;;;;;;5120745;28;20233;-90
2021/04/06 00:14:31;;;;;;;1.73;0.70;;;13.70;99.90;;;;;;5127473;28;20202;-91
2021/04/06 00:17:03;;;;;;;1.23;0.60;;;13.90;99.90;;;;;;5129207;28;20236;-92
2021/04/06 00:19:39;;;;;;;4.43;0.90;;;14.10;99.90;;;;;;5118808;28;20256;-92
2021/04/06 00:22:14;;;;;;;4.43;0.70;;;14.20;99.90;;;;;;5119304;28;20225;-93
2021/04/06 00:24:50;;;;;;;1.80;0.77;;;14.00;99.90;;;;;;5117435;28;20602;-92
2021/04/06 00:27:24;;;;;;;2.23;0.80;;;14.30;99.90;;;;;;5122967;28;20225;-92
2021/04/06 00:29:59;;;;;;;2.07;0.80;;;14.50;99.90;;;;;;5121336;28;20262;-92
2021/04/06 00:32:30;;;;;;;1.43;0.60;;;14.60;99.90;;;;;;5118302;28;20252;-92
2021/04/06 00:35:08;;;;;;;2.63;1.10;;;14.60;99.90;;;;;;5129713;28;20214;-90
2021/04/06 00:37:47;;;;;;;1.57;0.70;;;14.80;99.90;;;;;;5136804;28;20249;-92
2021/04/06 00:40:20;;;;;;;2.80;0.97;;;14.60;99.90;;;;;;5136387;28;20224;-91
2021/04/06 00:42:59;;;;;;;2.43;0.60;;;14.50;99.90;;;;;;5135162;28;20307;-91
2021/04/06 00:45:31;;;;;;;1.73;0.77;;;14.50;99.90;;;;;;5126168;28;20202;-91
2021/04/06 00:48:02;;;;;;;1.37;0.63;;;14.40;99.90;;;;;;5120326;28;20203;-91
2021/04/06 00:50:36;;;;;;;2.47;0.80;;;14.60;99.90;;;;;;5118955;28;20202;-90
2021/04/06 00:53:08;;;;;;;1.63;0.80;;;14.40;99.90;;;;;;5116276;28;20285;-90
2021/04/06 00:55:40;;;;;;;2.33;0.40;;;14.40;99.90;;;;;;5104963;28;20274;-90
2021/04/06 00:58:14;;;;;;;1.63;0.80;;;14.30;99.90;;;;;;5124649;27;20290;-91
2021/04/06 01:00:45;;;;;;;2.00;0.70;;;14.30;99.90;;;;;;5126860;28;20199;-90
2021/04/06 01:03:17;;;;;;;1.63;0.80;;;14.00;99.90;;;;;;5125764;28;20210;-91
2021/04/06 01:06:12;;;;;;;1.87;0.80;;;14.00;99.90;;;;;;5124588;28;20607;-90
2021/04/06 01:08:42;;;;;;;2.07;0.87;;;14.20;99.90;;;;;;5121582;28;20278;-90
2021/04/06 01:11:14;;;;;;;2.60;0.90;;;14.30;99.90;;;;;;5120179;28;20226;-91
2021/04/06 01:13:45;;;;;;;1.83;0.60;;;14.40;99.00;;;;;;5119061;28;20210;-91
2021/04/06 01:16:16;;;;;;;1.60;0.60;;;14.40;98.80;;;;;;5122009;28;20210;-91
2021/04/06 01:18:46;;;;;;;3.23;0.63;;;14.40;99.00;;;;;;5122935;28;20194;-91
2021/04/06 01:21:19;;;;;;;1.40;0.70;;;14.00;98.70;;;;;;5125161;28;20236;-91
2021/04/06 01:23:52;;;;;;;1.30;0.60;;;14.00;99.70;;;;;;5117649;28;20541;-92
2021/04/06 01:26:24;;;;;;;3.50;0.83;;;14.00;99.90;;;;;;5118989;28;20293;-90
2021/04/06 01:28:56;;;;;;;1.60;0.80;;;14.20;99.80;;;;;;5119199;28;20195;-90
2021/04/06 01:31:28;;;;;;;3.33;0.87;;;14.40;99.70;;;;;;5118713;28;20233;-90
2021/04/06 01:33:59;;;;;;;4.47;0.80;;;14.60;98.40;;;;;;5119643;28;20206;-90
2021/04/06 01:36:30;;;;;;;1.20;0.93;;;14.60;98.50;;;;;;5121784;28;20206;-91
2021/04/06 01:39:03;;;;;;;1.83;0.63;;;14.40;98.90;;;;;;5119171;28;20617;-91
2021/04/06 01:41:34;;;;;;;2.03;0.70;;;14.20;99.10;;;;;;5119443;28;20206;-91
2021/04/06 01:44:06;;;;;;;2.27;0.97;;;14.00;99.40;;;;;;5121048;28;20202;-92
2021/04/06 01:46:40;;;;;;;3.63;1.10;;;13.70;98.70;;;;;;5129070;28;20206;-92
2021/04/06 01:49:11;;;;;;;4.07;0.80;;;13.50;99.50;;;;;;5128465;28;20205;-93
2021/04/06 01:51:44;;;;;;;1.10;0.57;;;13.40;97.70;;;;;;5124314;28;20802;-92
2021/04/06 01:54:19;;;;;;;1.83;0.67;;;13.20;98.90;;;;;;5118669;28;20202;-92
2021/04/06 01:56:57;;;;;;;2.70;0.83;;;13.00;98.90;;;;;;5121363;28;20543;-94
2021/04/06 01:59:30;;;;;;;1.57;0.90;;;12.90;99.90;;;;;;5119464;28;21122;-95
2021/04/06 02:02:02;;;;;;;1.90;0.67;;;12.80;99.00;;;;;;5119908;28;20190;-95
2021/04/06 02:04:37;;;;;;;2.67;0.60;;;12.70;99.20;;;;;;5121974;28;20279;-93
2021/04/06 02:07:14;;;;;;;1.40;0.53;;;12.50;99.90;;;;;;5118519;28;20214;-94
2021/04/06 02:09:48;;;;;;;1.27;0.60;;;12.30;99.90;;;;;;5119811;28;20250;-92
2021/04/06 02:12:24;;;;;;;1.70;0.63;;;12.20;98.30;;;;;;5119460;28;20228;-94
2021/04/06 02:14:58;;;;;;;2.03;0.80;;;12.10;99.50;;;;;;5119431;28;20236;-95
2021/04/06 02:17:31;;;;;;;0.57;0.40;;;12.00;99.90;;;;;;5121682;28;20360;-93
2021/04/06 02:20:03;;;;;;;1.87;0.70;;;11.80;99.90;;;;;;5121447;28;20210;-93
2021/04/06 02:22:35;;;;;;;2.47;0.90;;;11.70;99.90;;;;;;5122103;27;20217;-93
2021/04/06 02:25:09;;;;;;;1.20;0.60;;;11.50;99.90;;;;;;5128150;28;20214;-93
2021/04/06 02:27:40;;;;;;;1.60;0.90;;;11.30;99.90;;;;;;5139566;27;20266;-93
2021/04/06 02:30:12;;;;;;;1.53;0.60;;;11.20;99.90;;;;;;5118341;28;20203;-93
2021/04/06 02:32:44;;;;;;;2.00;0.60;;;11.00;99.90;;;;;;5117877;28;20230;-92
2021/04/06 02:35:16;;;;;;;3.80;1.10;;;10.90;99.90;;;;;;5117761;28;20214;-91
2021/04/06 02:37:46;;;;;;;1.93;0.60;;;10.80;99.90;;;;;;5118318;28;20584;-91
2021/04/06 02:40:21;;;;;;;3.40;0.80;;;10.60;99.90;;;;;;5117683;28;20216;-91
2021/04/06 02:42:56;;;;;;;1.93;0.60;;;10.50;99.90;;;;;;5117758;27;20243;-92
2021/04/06 02:45:29;;;;;;;0.90;0.70;;;10.40;99.90;;;;;;5116589;28;20197;-92
2021/04/06 02:48:05;;;;;;;2.77;0.70;;;10.20;99.90;;;;;;5116822;28;20247;-91
2021/04/06 02:50:37;;;;;;;3.60;1.20;;;10.00;99.90;;;;;;5119381;27;20225;-91
2021/04/06 02:53:09;;;;;;;3.27;1.83;;;9.90;99.90;;;;;;5116860;28;20238;-91
2021/04/06 02:55:42;;;;;;;4.53;2.67;;;9.80;99.90;;;;;;5119272;28;20205;-93
2021/04/06 02:58:15;;;;;;;7.57;3.70;;;9.70;99.90;;;;;;5129593;28;20635;-92
2021/04/06 03:00:48;;;;;;;9.40;4.53;;;9.60;99.90;;;;;;5136988;28;20195;-92
2021/04/06 03:03:22;;;;;;;7.37;3.50;;;9.50;99.90;;;;;;5135083;28;20237;-93
2021/04/06 03:06:03;;;;;;;5.20;2.87;;;9.40;99.90;;;;;;5122109;28;20610;-92
2021/04/06 03:08:36;;;;;;;4.30;2.43;;;9.40;99.90;;;;;;5121160;28;20206;-92
2021/04/06 03:11:10;;;;;;;3.97;1.93;;;9.30;99.90;;;;;;5135155;28;20198;-93
2021/04/06 03:13:42;;;;;;;3.00;1.70;;;9.20;99.90;;;;;;5128487;28;20272;-92
2021/04/06 03:16:15;;;;;;;2.17;1.60;;;9.10;99.90;;;;;;5127832;28;20197;-92
2021/04/06 03:18:47;;;;;;;5.60;2.20;;;9.00;99.90;;;;;;5132195;28;20201;-93
2021/04/06 03:21:19;;;;;;;2.93;1.63;;;8.90;99.90;;;;;;5133899;28;20255;-94
2021/04/06 03:23:52;;;;;;;4.60;2.77;;;8.80;99.90;;;;;;5134608;28;20189;-93
2021/04/06 03:26:25;;;;;;;6.23;4.43;;;8.70;99.90;;;;;;5129329;28;20209;-92
2021/04/06 03:28:59;;;;;;;4.97;3.43;;;8.60;99.90;;;;;;5118951;28;20194;-92
2021/04/06 03:31:33;;;;;;;4.30;3.30;;;8.60;99.90;;;;;;5120331;28;20321;-91
2021/04/06 03:34:03;;;;;;;3.97;2.33;;;8.50;99.90;;;;;;5119314;28;20199;-92
2021/04/06 03:36:35;;;;;;;2.67;2.20;;;8.40;99.90;;;;;;5119231;28;20232;-91
2021/04/06 03:39:09;;;;;;;9.07;5.30;;;8.40;99.90;;;;;;5119046;28;20701;-92
2021/04/06 03:41:42;;;;;;;13.90;10.10;;;8.30;99.90;;;;;;5116666;28;20630;-92
2021/04/06 03:44:14;;;;;;;8.23;4.80;;;8.30;99.90;;;;;;5116565;28;20343;-91
2021/04/06 03:46:45;;;;;;;4.80;3.77;;;8.20;99.90;;;;;;5118540;28;20214;-91
2021/04/06 03:49:17;;;;;;;2.23;1.30;;;8.10;99.90;;;;;;5118198;28;20354;-91
2021/04/06 03:51:51;;;;;;;2.80;1.23;;;8.10;99.90;;;;;;5115648;28;20309;-92
2021/04/06 03:54:38;;;;;;;3.73;1.10;;;8.10;99.90;;;;;;5118431;28;20232;-92
2021/04/06 03:57:33;;;;;;;3.90;1.33;;;8.00;99.90;;;;;;5116704;28;20206;-92
2021/04/06 04:00:08;;;;;;;1.63;1.33;;;7.80;99.90;;;;;;5117073;28;20205;-92
2021/04/06 04:02:40;;;;;;;1.67;1.00;;;7.80;99.90;;;;;;5116285;28;20252;-92
2021/04/06 04:05:12;;;;;;;3.20;1.37;;;7.70;99.90;;;;;;5120107;28;20198;-92
2021/04/06 04:07:43;;;;;;;3.50;1.10;;;7.70;99.90;;;;;;5127258;28;20229;-93
2021/04/06 04:10:19;;;;;;;2.87;1.20;;;7.60;99.90;;;;;;5123324;28;20237;-92
2021/04/06 04:12:53;;;;;;;4.90;1.23;;;7.50;99.90;;;;;;5123642;28;20228;-93
2021/04/06 04:15:24;;;;;;;2.23;1.00;;;7.50;99.90;;;;;;5121148;28;20251;-92
2021/04/06 04:17:55;;;;;;;2.10;0.90;;;7.50;99.90;;;;;;5118300;28;20240;-93
2021/04/06 04:20:26;;;;;;;1.53;1.00;;;7.40;99.90;;;;;;5119663;28;20202;-93
2021/04/06 04:22:57;;;;;;;2.37;1.23;;;7.40;99.90;;;;;;5119632;28;20258;-94
2021/04/06 04:25:28;;;;;;;1.03;0.90;;;7.40;99.90;;;;;;5119557;28;20208;-92
2021/04/06 04:28:00;;;;;;;3.30;1.20;;;7.30;99.90;;;;;;5117454;28;20210;-92
2021/04/06 04:30:38;;;;;;;1.73;1.00;;;7.20;99.90;;;;;;5120117;28;20210;-91
2021/04/06 04:33:10;;;;;;;2.50;1.20;;;7.20;99.90;;;;;;5120927;28;20232;-91
2021/04/06 04:35:42;;;;;;;3.83;1.10;;;7.10;99.90;;;;;;5137783;27;20208;-90
2021/04/06 04:38:12;;;;;;;4.13;1.10;;;7.10;99.90;;;;;;5140009;28;20193;-91
2021/04/06 04:40:44;;;;;;;1.50;0.87;;;7.00;99.90;;;;;;5140566;28;20201;-91
2021/04/06 04:43:17;;;;;;;1.63;0.80;;;7.00;99.90;;;;;;5139291;27;20194;-92
2021/04/06 04:45:48;;;;;;;6.73;1.40;;;7.00;99.90;;;;;;5140279;28;20395;-92
2021/04/06 04:48:22;;;;;;;2.63;1.10;;;6.90;99.90;;;;;;5131022;28;20206;-92
2021/04/06 04:50:53;;;;;;;3.47;1.30;;;6.80;99.90;;;;;;5123549;28;20198;-91
2021/04/06 04:53:24;;;;;;;2.20;0.97;;;6.80;99.90;;;;;;5123758;27;20690;-92
2021/04/06 04:55:54;;;;;;;4.60;1.20;;;6.70;99.90;;;;;;5142957;27;20204;-93
2021/04/06 04:58:28;;;;;;;2.80;1.37;;;6.70;99.90;;;;;;5142036;27;20252;-93
2021/04/06 05:00:58;;;;;;;3.83;1.13;;;6.70;99.90;;;;;;5139159;27;20238;-93
2021/04/06 05:03:33;;;;;;;4.07;1.10;;;6.70;99.90;;;;;;5137930;27;20206;-92
2021/04/06 05:06:03;;;;;;;2.33;1.33;;;6.70;99.90;;;;;;5139582;27;20283;-92
2021/04/06 05:08:33;;;;;;;3.10;1.50;;;6.60;99.90;;;;;;5141136;27;20691;-92
2021/04/06 05:11:03;;;;;;;3.40;1.40;;;6.60;99.90;;;;;;5132862;27;20203;-92
2021/04/06 05:13:36;;;;;;;4.17;1.47;;;6.60;99.90;;;;;;5120182;28;20694;-93
2021/04/06 05:16:08;;;;;;;2.17;1.20;;;6.60;99.90;;;;;;5120608;28;20313;-93
2021/04/06 05:18:39;;;;;;;4.37;1.40;;;6.50;99.90;;;;;;5119873;28;20230;-91
2021/04/06 05:21:11;;;;;;;3.50;1.43;;;6.50;99.90;;;;;;5118845;28;20206;-92
2021/04/06 05:23:41;;;;;;;7.07;1.70;;;6.50;99.90;;;;;;5118131;28;20212;-92
2021/04/06 05:26:11;;;;;;;4.37;2.00;;;6.40;99.90;;;;;;5125451;28;20216;-91
2021/04/06 05:28:43;;;;;;;1.77;1.27;;;6.30;99.90;;;;;;5134852;27;20275;-89
2021/04/06 05:31:14;;;;;;;3.97;1.30;;;6.40;99.90;;;;;;5135515;28;20186;-90
2021/04/06 05:33:45;;;;;;;3.43;1.43;;;6.30;99.90;;;;;;5131200;28;20208;-91
2021/04/06 05:36:15;;;;;;;4.43;1.57;;;6.30;99.90;;;;;;5110988;28;20210;-90
2021/04/06 05:38:48;;;;;;;3.37;1.40;;;6.30;99.90;;;;;;5126176;28;20285;-91
2021/04/06 05:41:20;;;;;;;3.17;1.50;;;6.20;99.90;;;;;;5122177;27;20260;-91
2021/04/06 05:44:00;;;;;;;2.97;1.30;;;6.10;99.90;;;;;;5117815;28;20260;-91
2021/04/06 05:46:35;;;;;;;2.47;1.40;;;6.10;99.90;;;;;;5119102;27;20217;-90
2021/04/06 05:49:09;;;;;;;4.40;1.80;;;6.00;99.90;;;;;;5122293;28;20601;-90
2021/04/06 05:51:42;;;;;;;5.27;1.80;;;5.90;99.90;;;;;;5117108;28;20623;-90
2021/04/06 05:54:15;;;;;;;4.33;1.83;;;5.90;99.90;;;;;;5118260;28;20674;-90
2021/04/06 05:56:45;;;;;;;6.17;1.80;;;5.90;99.90;;;;;;5121245;28;20210;-92
2021/04/06 05:59:18;;;;;;;4.97;1.60;;;5.90;99.90;;;;;;5120535;28;20229;-91
2021/04/06 06:01:50;;;;;;;3.77;1.60;;;5.90;99.90;;;;;;5099849;28;20233;-90
2021/04/06 06:04:21;;;;;;;5.03;1.93;;;5.80;99.90;;;;;;5118939;28;20280;-92
2021/04/06 06:06:52;;;;;;;3.17;1.60;;;5.80;99.90;;;;;;5118022;28;20214;-92
2021/04/06 06:09:33;;;;;;;4.60;1.93;;;5.80;99.90;;;;;;5116356;28;20210;-92
2021/04/06 06:12:05;;;;;;;7.07;2.00;;;5.80;99.90;;;;;;5117354;27;20229;-92
2021/04/06 06:14:38;;;;;;;3.33;1.90;;;5.80;99.90;;;;;;5119889;28;20208;-92
2021/04/06 06:17:17;;;;;;;4.17;2.20;;;5.80;99.90;;;;;;5118778;28;20267;-92
2021/04/06 06:19:49;;;;;;;5.03;2.40;;;5.70;99.90;;;;;;5122159;28;20345;-91
2021/04/06 06:22:23;;;;;;;5.03;1.83;;;5.80;99.90;;;;;;5128404;28;20296;-92
2021/04/06 06:25:05;;;;;;;6.13;1.90;;;5.70;99.90;;;;;;5129625;28;20309;-91
2021/04/06 06:27:38;;;;;;;4.73;1.70;;;5.50;99.90;;;;;;5125915;28;20267;-91
2021/04/06 06:30:32;;;;;;;2.73;1.43;;;5.50;99.90;;;;;;5123233;28;20238;-91
2021/04/06 06:33:18;;;;;;;5.80;1.63;;;5.50;99.90;;;;;;5120093;28;20297;-91
2021/04/06 06:35:49;;;;;;;4.10;2.30;;;5.40;99.90;;;;;;5118256;27;20438;-91
2021/04/06 06:38:23;;;;;;;3.80;1.73;;;5.40;99.90;;;;;;5117893;28;20262;-91
2021/04/06 06:40:55;;;;;;;6.17;1.93;;;5.40;99.90;;;;;;5117939;28;20298;-91
2021/04/06 06:43:27;;;;;;;4.03;1.60;;;5.40;99.90;;;;;;5117030;28;20255;-91
2021/04/06 06:46:00;;;;;;;3.03;1.27;;;5.40;99.90;;;;;;5117844;28;20645;-91
2021/04/06 06:48:32;;;;;;;4.00;1.43;;;5.40;99.90;;;;;;5117786;28;20206;-91
2021/04/06 06:51:05;;;;;;;3.13;1.73;;;5.30;99.90;;;;;;5117812;28;20213;-91
2021/04/06 06:53:38;;;;;;;4.07;1.97;;;5.40;99.90;;;;;;5114474;27;20320;-91
2021/04/06 06:56:11;;;;;;;2.43;1.30;;;5.30;99.90;;;;;;5116107;28;20596;-92
2021/04/06 06:58:44;;;;;;;2.77;1.43;;;5.20;99.90;;;;;;5116492;28;20640;-92
2021/04/06 07:01:28;;;;;;;2.20;1.30;;;5.20;99.90;;;;;;5116256;28;20210;-92
2021/04/06 07:04:08;;;;;;;3.40;1.70;;;5.20;99.90;;;;;;5116352;28;20229;-92
2021/04/06 07:06:41;;;;;;;3.63;1.53;;;5.20;99.90;;;;;;5117337;28;20589;-91
2021/04/06 07:09:25;;;;;;;2.53;1.50;;;5.10;99.90;;;;;;5117636;28;20210;-92
2021/04/06 07:12:00;;;;;;;3.50;1.60;;;5.10;99.90;;;;;;5117173;28;20216;-92
2021/04/06 07:14:33;;;;;;;2.30;1.40;;;5.10;99.90;;;;;;5121586;28;20208;-91
2021/04/06 07:17:08;;;;;;;4.87;1.63;;;5.00;99.90;;;;;;5115822;28;20202;-91
2021/04/06 07:19:44;;;;;;;2.77;1.30;;;5.10;99.90;;;;;;5116520;28;20206;-91
2021/04/06 07:22:19;;;;;;;3.10;1.70;;;5.00;99.90;;;;;;5114785;28;20202;-91
2021/04/06 07:24:51;;;;;;;2.83;1.50;;;5.00;99.90;;;;;;5116911;28;20213;-92
2021/04/06 07:27:25;;;;;;;3.17;1.30;;;4.90;99.90;;;;;;5116003;28;20665;-90
2021/04/06 07:29:56;;;;;;;3.40;1.30;;;4.90;99.90;;;;;;5116712;28;20289;-90
2021/04/06 07:32:30;;;;;;;2.20;1.37;;;4.80;99.90;;;;;;5115799;28;20290;-90
2021/04/06 07:35:01;;;;;;;2.03;1.13;;;4.80;99.90;;;;;;5116235;28;20205;-90
2021/04/06 07:37:33;;;;;;;4.30;1.20;;;4.80;99.90;;;;;;5116902;28;20210;-91
2021/04/06 07:40:09;;;;;;;3.40;1.80;;;4.80;99.90;;;;;;5117016;28;20217;-90
2021/04/06 07:42:40;;;;;;;4.93;1.80;;;4.80;99.90;;;;;;5118156;28;20247;-90
2021/04/06 07:45:27;;;;;;;4.77;1.67;;;4.70;99.90;;;;;;5123241;28;20206;-91
2021/04/06 07:48:00;;;;;;;4.13;1.40;;;4.60;99.90;;;;;;5134522;28;20202;-91
2021/04/06 07:50:37;;;;;;;4.17;1.60;;;4.60;99.90;;;;;;5127950;28;20228;-91
2021/04/06 07:53:27;;;;;;;4.37;1.40;;;4.50;99.90;;;;;;5111171;28;20234;-90
2021/04/06 07:56:01;;;;;;;3.60;1.40;;;4.50;99.90;;;;;;5103644;28;20214;-91
2021/04/06 07:58:48;;;;;;;2.70;1.37;;;4.40;99.90;;;;;;5102711;28;20206;-91
2021/04/06 08:01:29;;;;;;;2.73;1.37;;;4.40;99.90;;;;;;5100433;28;20221;-91
2021/04/06 08:04:09;;;;;;;3.30;1.53;;;4.40;99.90;;;;;;5100674;28;20199;-91
2021/04/06 08:06:46;;;;;;;3.40;1.63;;;4.40;99.90;;;;;;5104774;28;20206;-90
2021/04/06 08:09:47;;;;;;;3.23;1.60;;;4.30;99.90;;;;;;5103285;28;20242;-91
2021/04/06 08:12:19;;;;;;;6.90;1.80;;;4.30;99.90;;;;;;5119841;28;20335;-91
2021/04/06 08:14:55;;;;;;;4.03;1.53;;;4.20;99.90;;;;;;5122411;28;20592;-92
2021/04/06 08:18:00;;;;;;;2.33;1.30;;;4.20;99.90;;;;;;5120085;27;20217;-92
2021/04/06 08:20:38;;;;;;;2.80;1.50;;;4.20;99.90;;;;;;5120644;27;20301;-91
2021/04/06 08:23:11;;;;;;;1.83;1.40;;;4.20;99.90;;;;;;5120210;28;20206;-91
2021/04/06 08:25:53;;;;;;;3.33;1.30;;;4.20;99.90;;;;;;5103719;28;20270;-91
2021/04/06 08:28:40;;;;;;;2.63;1.80;;;4.20;99.90;;;;;;5120329;28;20263;-90
2021/04/06 08:31:33;;;;;;;6.00;1.97;;;4.20;99.90;;;;;;5120611;28;20217;-90
2021/04/06 08:34:31;;;;;;;4.90;2.10;;;4.20;99.90;;;;;;5118488;28;20229;-90
2021/04/06 08:37:21;;;;;;;2.83;1.57;;;4.20;99.90;;;;;;5120553;28;20530;-90
2021/04/06 08:39:54;;;;;;;3.07;1.40;;;4.20;99.90;;;;;;5120279;28;20584;-90
2021/04/06 08:42:26;;;;;;;4.80;1.97;;;4.20;99.90;;;;;;5119548;28;20745;-90
2021/04/06 08:44:59;;;;;;;2.80;1.77;;;4.20;99.90;;;;;;5119839;28;20206;-90
2021/04/06 08:47:51;;;;;;;5.57;1.70;;;4.10;99.90;;;;;;5120914;28;20210;-90
2021/04/06 08:50:35;;;;;;;5.23;1.93;;;4.10;99.90;;;;;;5101100;28;20215;-91
2021/04/06 08:53:07;;;;;;;6.90;2.07;;;4.20;99.90;;;;;;5099343;28;20755;-90
2021/04/06 08:55:38;;;;;;;3.73;1.90;;;4.30;99.90;;;;;;5117963;28;20206;-90
2021/04/06 08:58:09;;;;;;;3.87;2.27;;;4.20;99.90;;;;;;5120235;27;20686;-91
2021/04/06 09:00:39;;;;;;;5.43;2.20;;;4.30;99.90;;;;;;5119856;28;20214;-91
2021/04/06 09:03:11;;;;;;;5.80;2.30;;;4.40;99.90;;;;;;5119424;28;20285;-91
2021/04/06 09:05:42;;;;;;;3.30;1.50;;;4.40;99.90;;;;;;5118697;28;20534;-91
2021/04/06 09:08:25;;;;;;;7.27;2.40;;;4.50;99.90;;;;;;5119466;28;20206;-91
2021/04/06 09:11:05;;;;;;;4.27;1.90;;;4.50;99.90;;;;;;5122457;28;20205;-90
2021/04/06 09:13:39;;;;;;;4.43;2.50;;;4.50;99.90;;;;;;5120504;28;20332;-91
2021/04/06 09:16:11;;;;;;;7.07;2.37;;;4.50;99.90;;;;;;5105563;28;20206;-91
2021/04/06 09:18:41;;;;;;;9.43;2.17;;;4.60;99.90;;;;;;5123516;28;20217;-91
2021/04/06 09:21:13;;;;;;;7.57;2.43;;;4.70;99.90;;;;;;5123976;28;20202;-91
2021/04/06 09:23:46;;;;;;;7.83;2.13;;;4.80;99.90;;;;;;5125482;27;20202;-92
2021/04/06 09:26:17;;;;;;;7.70;2.60;;;4.90;99.90;;;;;;5122525;28;20198;-92
2021/04/06 09:28:49;;;;;;;8.83;2.03;;;5.00;99.90;;;;;;5124176;28;20681;-91
2021/04/06 09:31:21;;;;;;;4.20;2.07;;;5.00;99.90;;;;;;5123957;28;20223;-90
2021/04/06 09:33:51;;;;;;;5.40;2.47;;;5.00;99.90;;;;;;5121285;28;20234;-90
2021/04/06 09:36:23;;;;;;;5.23;2.50;;;5.00;99.90;;;;;;5120548;28;20214;-91
2021/04/06 09:38:56;;;;;;;6.63;2.10;;;4.90;99.90;;;;;;5124109;28;20198;-90
2021/04/06 09:41:33;;;;;;;6.17;2.20;;;5.00;99.90;;;;;;5121350;28;20210;-90
2021/04/06 09:44:06;;;;;;;5.07;2.37;;;4.90;99.90;;;;;;5128416;28;20202;-90
2021/04/06 09:46:38;;;;;;;8.43;2.60;;;4.90;99.90;;;;;;5129245;28;20198;-91
2021/04/06 09:49:10;;;;;;;9.07;2.70;;;5.00;99.90;;;;;;5128586;28;20251;-90
2021/04/06 09:52:03;;;;;;;10.67;2.57;;;5.00;99.90;;;;;;5125620;28;20266;-92
2021/04/06 09:54:38;;;;;;;6.20;2.13;;;5.00;99.90;;;;;;5122038;28;20241;-90
2021/04/06 09:57:11;;;;;;;5.50;2.20;;;4.90;99.90;;;;;;5121040;28;20205;-91
2021/04/06 09:59:47;;;;;;;6.90;3.00;;;4.90;99.90;;;;;;5128887;28;20275;-91
2021/04/06 10:02:19;;;;;;;9.67;2.30;;;4.90;99.90;;;;;;5123317;27;20658;-91
2021/04/06 10:04:51;;;;;;;7.07;2.10;;;4.90;99.90;;;;;;5137083;27;20198;-92
2021/04/06 10:07:23;;;;;;;7.50;2.50;;;4.90;99.90;;;;;;5138429;28;20194;-92
2021/04/06 10:09:57;;;;;;;4.20;2.27;;;4.80;99.90;;;;;;5138973;28;20276;-90
2021/04/06 10:12:30;;;;;;;4.33;1.90;;;4.80;99.90;;;;;;5138623;28;20265;-91
2021/04/06 10:15:02;;;;;;;4.97;1.90;;;4.80;99.90;;;;;;5138582;28;20185;-90
2021/04/06 10:17:38;;;;;;;8.77;2.27;;;4.70;99.90;;;;;;5117218;28;20230;-91
2021/04/06 10:20:12;;;;;;;5.80;2.57;;;4.70;99.90;;;;;;5106815;28;20642;-90
2021/04/06 10:22:44;;;;;;;6.57;2.40;;;4.60;99.90;;;;;;5097721;28;20253;-91
2021/04/06 10:25:19;;;;;;;13.30;2.97;;;4.60;99.90;;;;;;5102757;28;20203;-91
2021/04/06 10:27:52;;;;;;;8.60;2.17;;;4.50;99.90;;;;;;5097329;28;20285;-91
2021/04/06 10:30:27;;;;;;;5.83;2.73;;;4.40;99.90;;;;;;5097150;28;20230;-90
2021/04/06 10:33:09;;;;;;;6.10;2.47;;;4.40;99.90;;;;;;5096096;28;20227;-90
2021/04/06 10:35:45;;;;;;;9.77;2.53;;;4.40;99.90;;;;;;5096127;28;20236;-90
2021/04/06 10:38:22;;;;;;;5.43;2.33;;;4.40;99.90;;;;;;5097244;28;20202;-90
2021/04/06 10:41:03;;;;;;;8.20;2.27;;;4.40;99.90;;;;;;5097443;28;20263;-89
2021/04/06 10:43:39;;;;;;;5.80;2.60;;;4.40;99.90;;;;;;5096527;28;20629;-90
2021/04/06 10:46:13;;;;;;;9.60;2.47;;;4.30;99.90;;;;;;5097017;28;20244;-90
2021/04/06 10:48:48;;;;;;;7.83;2.80;;;4.30;99.90;;;;;;5099413;28;20236;-90
2021/04/06 10:51:22;;;;;;;6.57;2.20;;;4.30;99.90;;;;;;5103116;28;20207;-90
2021/04/06 10:53:57;;;;;;;6.83;2.40;;;4.30;99.90;;;;;;5103027;28;20239;-90
2021/04/06 10:56:32;;;;;;;6.13;2.10;;;4.30;99.90;;;;;;5100142;28;20207;-90
2021/04/06 10:59:06;;;;;;;9.00;2.47;;;4.20;99.90;;;;;;5097571;28;20259;-90
2021/04/06 11:01:41;;;;;;;10.47;2.53;;;4.20;99.90;;;;;;5111967;28;20222;-91
2021/04/06 11:04:13;;;;;;;7.63;2.50;;;4.20;99.90;;;;;;5120970;28;20210;-90
2021/04/06 11:06:46;;;;;;;8.47;2.17;;;4.20;99.90;;;;;;5123704;28;20295;-91
2021/04/06 11:09:19;;;;;;;8.07;2.10;;;4.20;99.90;;;;;;5118708;28;20206;-91
2021/04/06 11:11:55;;;;;;;8.80;2.83;;;4.20;99.90;;;;;;5120188;28;20202;-91
2021/04/06 11:14:28;;;;;;;4.60;1.73;;;4.10;99.90;;;;;;5122382;28;20242;-90
2021/04/06 11:17:05;;;;;;;6.77;2.53;;;4.10;99.90;;;;;;5118261;28;20758;-90
2021/04/06 11:19:37;;;;;;;7.20;2.60;;;4.10;99.90;;;;;;5119380;28;20202;-90
2021/04/06 11:22:11;;;;;;;8.83;2.53;;;4.00;99.90;;;;;;5115991;28;20226;-90
2021/04/06 11:24:47;;;;;;;7.50;2.60;;;4.00;99.90;;;;;;5119431;28;20225;-90
2021/04/06 11:27:19;;;;;;;7.63;2.43;;;3.90;99.90;;;;;;5117480;28;20190;-89
2021/04/06 11:29:51;;;;;;;6.23;2.57;;;3.90;99.90;;;;;;5117073;28;20202;-89
2021/04/06 11:32:23;;;;;;;7.17;2.63;;;3.90;99.90;;;;;;5116304;28;20209;-89
2021/04/06 11:34:56;;;;;;;7.67;2.50;;;3.80;99.90;;;;;;5115836;28;20271;-90
2021/04/06 11:37:27;;;;;;;9.80;2.67;;;3.80;99.90;;;;;;5116932;28;20294;-90
2021/04/06 11:39:59;;;;;;;6.70;2.40;;;3.70;99.90;;;;;;5115877;28;20255;-91
2021/04/06 11:42:31;;;;;;;5.83;2.60;;;3.70;99.90;;;;;;5119059;28;20226;-91
2021/04/06 11:45:02;;;;;;;8.47;3.00;;;3.70;99.90;;;;;;5121995;28;20198;-91
2021/04/06 11:47:34;;;;;;;7.23;2.43;;;3.70;99.90;;;;;;5121961;28;20277;-92
2021/04/06 11:50:07;;;;;;;5.33;2.50;;;3.70;99.90;;;;;;5128139;28;20198;-91
2021/04/06 11:52:38;;;;;;;12.00;2.80;;;3.70;99.90;;;;;;5119340;28;20206;-90
2021/04/06 11:55:10;;;;;;;4.83;2.37;;;3.70;99.90;;;;;;5116525;28;20678;-90
2021/04/06 11:57:48;;;;;;;9.90;2.70;;;3.60;99.90;;;;;;5116496;28;20644;-90
2021/04/06 12:00:20;;;;;;;5.53;2.37;;;3.60;99.90;;;;;;5116520;28;20293;-90
2021/04/06 12:02:51;;;;;;;10.43;2.83;;;3.50;99.90;;;;;;5115586;28;20208;-91
2021/04/06 12:05:24;;;;;;;11.07;2.47;;;3.50;99.90;;;;;;5114981;28;20214;-91
2021/04/06 12:07:54;;;;;;;8.53;2.57;;;3.50;99.90;;;;;;5116714;28;20673;-91
2021/04/06 12:10:25;;;;;;;9.83;2.17;;;3.50;99.90;;;;;;5116479;28;20210;-91
2021/04/06 12:12:58;;;;;;;8.27;2.97;;;3.50;99.90;;;;;;5115775;28;20251;-91
2021/04/06 12:15:29;;;;;;;12.70;2.80;;;3.50;99.90;;;;;;5115831;28;20251;-91
2021/04/06 12:17:59;;;;;;;9.37;2.93;;;3.60;99.90;;;;;;5123811;28;20202;-89
2021/04/06 12:20:30;;;;;;;4.80;2.63;;;3.50;99.90;;;;;;5114371;28;20222;-89
2021/04/06 12:23:01;;;;;;;10.50;2.53;;;3.50;99.90;;;;;;5112768;28;20199;-90
2021/04/06 12:25:32;;;;;;;12.30;2.90;;;3.60;99.90;;;;;;5101277;28;20197;-91
2021/04/06 12:28:04;;;;;;;5.43;2.47;;;3.60;99.90;;;;;;5095431;28;20541;-91
2021/04/06 12:30:35;;;;;;;7.33;2.70;;;3.60;99.90;;;;;;5106598;28;20211;-89
2021/04/06 12:33:06;;;;;;;5.23;2.47;;;3.60;99.90;;;;;;5109017;28;20301;-90
2021/04/06 12:35:37;;;;;;;11.93;3.23;;;3.50;99.90;;;;;;5096973;28;20751;-90
2021/04/06 12:38:08;;;;;;;6.10;2.73;;;3.50;99.90;;;;;;5102397;28;20651;-91
2021/04/06 12:40:42;;;;;;;5.43;2.63;;;3.50;99.90;;;;;;5122266;28;20263;-90
2021/04/06 12:43:15;;;;;;;5.83;2.67;;;3.40;99.90;;;;;;5116387;28;20244;-91
2021/04/06 12:45:46;;;;;;;7.80;2.87;;;3.40;99.90;;;;;;5115642;28;20267;-91
2021/04/06 12:48:16;;;;;;;7.10;2.73;;;3.30;99.90;;;;;;5117488;28;20229;-91
2021/04/06 12:50:47;;;;;;;7.47;2.80;;;3.20;99.90;;;;;;5121421;28;20205;-91
2021/04/06 12:53:18;;;;;;;11.47;2.73;;;3.20;99.90;;;;;;5119633;27;20226;-91
2021/04/06 12:55:49;;;;;;;9.40;2.70;;;3.10;99.90;;;;;;5118595;28;20209;-89
2021/04/06 12:58:21;;;;;;;8.17;2.67;;;3.10;99.90;;;;;;5104448;28;20541;-90
2021/04/06 13:00:52;;;;;;;8.37;2.67;;;3.10;99.90;;;;;;5119783;28;20230;-90
2021/04/06 13:03:21;;;;;;;9.07;2.87;;;3.00;99.90;;;;;;5121092;28;20236;-91
2021/04/06 13:05:53;;;;;;;9.67;2.83;;;3.10;99.90;;;;;;5121403;27;20259;-90
2021/04/06 13:08:23;;;;;;;7.97;2.90;;;3.00;99.90;;;;;;5118810;28;20210;-90
2021/04/06 13:10:54;;;;;;;7.63;2.53;;;3.00;99.90;;;;;;5119242;27;20249;-91
2021/04/06 13:13:28;;;;;;;7.03;2.23;;;3.00;99.90;;;;;;5117294;28;20229;-90
2021/04/06 13:16:00;;;;;;;5.50;1.87;;;2.90;99.90;;;;;;5119847;27;20205;-90
2021/04/06 13:18:31;;;;;;;7.57;2.40;;;2.90;99.90;;;;;;5119694;28;20272;-91
2021/04/06 13:21:02;;;;;;;4.07;2.43;;;2.90;99.90;;;;;;5123835;27;20210;-90
2021/04/06 13:23:33;;;;;;;4.37;2.23;;;2.80;99.90;;;;;;5118124;28;20213;-90
2021/04/06 13:26:04;;;;;;;4.43;1.80;;;2.80;99.90;;;;;;5100964;28;20210;-91
2021/04/06 13:28:35;;;;;;;6.27;2.07;;;2.70;99.90;;;;;;5117273;28;20206;-91
2021/04/06 13:31:08;;;;;;;5.63;2.00;;;2.70;99.90;;;;;;5118766;28;20271;-91